CheckWX is a tool to help pilots better visualize weather data.  It is not intended as a substitute for an official pre-flight weather briefing.

20:15:48 UTC

KMFD METAR
Mansfield Lahm Regional Airport
Mansfield, Ohio, USA
Current

24 mins ago

KMFD 261952Z 25006KT 10SM SCT060 BKN075 29/17 A3012 RMK AO2 SLP188 T02940172
Observed
Jun-26 @ 19:52 UTC
Wind
  • 250° at 6 KTS
Visibility
10 SM
Flight Rules
VFR
Cloud Levels
  • Scattered at 6,000' AGL
  • Broken at 7,500' AGL
Temperature
29°C / 84°F
Dewpoint
17°C / 63°F
Heat Index
29°C / 85°F
Humidity
48%
Altimeter
30.12" Hg
Pressure
1020.02 hPa
Previous

1 hour ago

KMFD 261852Z 24007KT 10SM FEW050 FEW065 SCT120 30/18 A3011 RMK AO2 SLP186 T03000178
Observed
Jun-26 @ 18:52 UTC
Wind
  • 240° at 7 KTS
Visibility
10 SM
Flight Rules
VFR
Cloud Levels
  • Few at 5,000' AGL
  • Few at 6,500' AGL
  • Scattered at 12,000' AGL
Temperature
30°C / 86°F
Dewpoint
18°C / 64°F
Heat Index
31°C / 88°F
Humidity
49%
Altimeter
30.11" Hg
Pressure
1019.62 hPa
Previous

2 hours ago

KMFD 261752Z 23006KT 10SM FEW043 SCT050 SCT065 29/18 A3012 RMK AO2 SLP190 T02890183 10289 20217 50001
Observed
Jun-26 @ 17:52 UTC
Wind
  • 230° at 6 KTS
Visibility
10 SM
Flight Rules
VFR
Cloud Levels
  • Few at 4,300' AGL
  • Scattered at 5,000' AGL
  • Scattered at 6,500' AGL
Temperature
29°C / 84°F
Dewpoint
18°C / 64°F
Heat Index
29°C / 85°F
Humidity
51%
Altimeter
30.12" Hg
Pressure
1020.02 hPa